KARV/ARV METAR and TAF weather

Enter ICAO airport designator
Station Type Date Time Source
KARV METAR 2018/07/20 14:35 UTC NOAA

KARV 201435Z AUTO 04004KT 10SM -RA SCT007 OVC012 18/17 A2978 RMK AO2 T01800173


Station Type Date Time Source
KARV Decoded METAR 2018/07/20 14:35 UTC NOAA

Minocqua/Woodruff, Lakeland Airport/Noble F. Lee Memorial Field, WI, United States (KARV) 45-56N 089-44W
Jul 20, 2018 - 10:35 AM EDT / 2018.07.20 1435 UTC
Wind: from the NE (040 degrees) at 5 MPH (4 KT):0
Visibility: 10 mile(s):0
Sky conditions: overcast
Weather: light rain
Temperature: 64.4 F (18.0 C)
Dew Point: 63.1 F (17.3 C)
Relative Humidity: 95%
Pressure (altimeter): 29.78 in. Hg (1008 hPa)
ob: KARV 201435Z AUTO 04004KT 10SM -RA SCT007 OVC012 18/17 A2978 RMK AO2 T01800173
cycle: 14

Station Type Date Time Source
KARV TAF UTC NOAA

Error!


Example: see airport list